Time;durP1;ratioP1;P1;durP2;ratioP2;P2;SDS_P1;SDS_P2;PMS_P1;PMS_P2;Temp;Humidity;BMP_temperature;BMP_pressure;BME280_temperature;BME280_humidity;BME280_pressure;Samples;Min_cycle;Max_cycle;Signal;HPM_P1;HPM_P2
2021/09/24 00:32:24;;;;;;;12.38;3.05;;;;;;;14.72;100.00;101604.84;2615056;36;20038;-75
2021/09/24 00:35:09;;;;;;;12.55;3.03;;;;;;;14.74;100.00;101610.97;2615080;36;20564;-75
2021/09/24 02:38:44;;;;;;;11.55;3.25;;;;;;;14.60;100.00;101576.16;2632395;31;20106;-75
2021/09/24 03:00:56;;;;;;;11.27;3.25;;;;;;;14.47;100.00;101568.34;2662299;36;20343;-76
2021/09/24 05:39:33;;;;;;;25.20;14.13;;;;;;;14.33;100.00;101532.56;2613365;36;20042;-74
2021/09/24 05:42:07;;;;;;;29.08;15.77;;;;;;;14.34;100.00;101537.00;2614833;36;20039;-74
2021/09/24 05:44:39;;;;;;;26.77;15.80;;;;;;;14.32;100.00;101538.97;2633928;36;20042;-73
2021/09/24 05:47:07;;;;;;;25.38;16.67;;;;;;;14.31;100.00;101545.41;2615792;36;20043;-74
2021/09/24 05:50:05;;;;;;;25.35;16.25;;;;;;;14.32;100.00;101538.97;2614756;36;20089;-74
2021/09/24 05:55:19;;;;;;;30.92;18.35;;;;;;;14.34;100.00;101537.00;2614467;36;20455;-76
2021/09/24 05:57:48;;;;;;;31.02;19.35;;;;;;;14.35;100.00;101537.84;2615653;36;20086;-75
2021/09/24 06:00:19;;;;;;;37.33;19.83;;;;;;;14.22;100.00;101532.72;2615668;36;20038;-76
2021/09/24 06:02:49;;;;;;;34.47;20.15;;;;;;;14.27;100.00;101535.88;2615031;36;20535;-76
2021/09/24 06:05:18;;;;;;;39.55;22.70;;;;;;;14.16;100.00;101533.31;2615802;36;20039;-75
2021/09/24 06:07:46;;;;;;;40.63;21.85;;;;;;;14.13;100.00;101544.41;2614224;36;20086;-76
2021/09/24 06:10:19;;;;;;;39.33;22.53;;;;;;;14.20;100.00;101540.16;2614969;36;20054;-75
2021/09/24 06:12:48;;;;;;;42.60;25.08;;;;;;;14.26;100.00;101542.28;2615650;31;20299;-75
2021/09/24 06:15:17;;;;;;;41.67;25.98;;;;;;;14.35;100.00;101552.25;2614331;36;20041;-75
2021/09/24 06:17:45;;;;;;;43.63;26.25;;;;;;;14.43;100.00;101550.66;2615425;36;20055;-76
2021/09/24 06:20:15;;;;;;;48.50;27.05;;;;;;;14.51;100.00;101558.94;2614661;36;20062;-76
2021/09/24 06:22:44;;;;;;;50.13;29.33;;;;;;;14.57;100.00;101562.91;2616109;36;20030;-76
2021/09/24 06:25:13;;;;;;;;;;;;;;;14.63;100.00;101563.22;2615216;36;20058;-74
2021/09/24 06:27:44;;;;;;;61.72;31.30;;;;;;;14.69;100.00;101572.63;2614686;36;19983;-78
2021/09/24 06:30:17;;;;;;;61.72;30.83;;;;;;;14.70;100.00;101564.34;2614977;36;20047;-75
2021/09/24 06:32:45;;;;;;;64.90;33.30;;;;;;;14.74;100.00;101564.03;2614992;36;20051;-75
2021/09/24 06:35:14;;;;;;;66.85;32.83;;;;;;;14.74;100.00;101564.03;2615084;36;20616;-75
2021/09/24 06:37:43;;;;;;;75.45;35.60;;;;;;;14.77;100.00;101563.78;2615212;36;20046;-75
2021/09/24 06:40:38;;;;;;;75.70;34.47;;;;;;;14.82;100.00;101561.47;2614964;36;20034;-76
2021/09/24 06:43:09;;;;;;;73.25;34.78;;;;;;;14.81;100.00;101565.16;2615010;36;20038;-77
2021/09/24 07:03:23;;;;;;;94.93;39.15;;;;;;;15.08;100.00;101577.94;2633179;31;20077;-73
2021/09/24 07:23:22;;;;;;;116.72;44.20;;;;;;;15.32;100.00;101563.84;2615380;36;20026;-75
2021/09/24 07:44:03;;;;;;;109.90;46.90;;;;;;;15.91;100.00;101547.25;2615524;47;20023;-75
2021/09/24 07:59:09;;;;;;;98.07;44.17;;;;;;;16.22;100.00;101549.56;2614843;36;20038;-75
2021/09/24 08:08:57;;;;;;;91.85;42.65;;;;;;;16.45;100.00;101548.06;2614352;47;20041;-75
2021/09/24 08:11:28;;;;;;;91.18;41.97;;;;;;;16.62;100.00;101540.03;2615237;36;20194;-76
2021/09/24 09:16:30;;;;;;;;;;;;;;;17.84;100.00;101503.50;2615900;54;20030;-73
2021/09/24 09:19:29;;;;;;;40.92;27.25;;;;;;;18.02;100.00;101506.09;2615798;47;19938;-75
2021/09/24 09:32:07;;;;;;;30.80;21.13;;;;;;;18.29;100.00;101495.03;2633325;36;20549;-74
2021/09/24 09:41:02;;;;;;;30.63;20.60;;;;;;;18.48;100.00;101475.59;2616085;36;20419;-75
2021/09/24 09:49:23;;;;;;;26.63;19.35;;;;;;;18.74;100.00;101479.94;2616803;36;20041;-74
2021/09/24 10:03:59;;;;;;;27.80;16.63;;;;;;;19.13;100.00;101468.25;2616175;36;20038;-75
2021/09/24 10:37:41;;;;;;;15.50;13.07;;;;;;;19.38;100.00;101447.13;2614932;47;20540;-76
2021/09/24 10:41:03;;;;;;;15.77;12.68;;;;;;;19.50;100.00;101444.00;2615022;36;20163;-76
2021/09/24 10:50:37;;;;;;;23.13;12.88;;;;;;;19.84;100.00;101446.31;2616283;31;20435;-75
2021/09/24 10:56:44;;;;;;;15.13;10.68;;;;;;;19.77;100.00;101442.59;2616794;36;20019;-76
2021/09/24 11:09:15;;;;;;;13.18;9.65;;;;;;;20.27;100.00;101435.72;2615574;36;20042;-75
2021/09/24 11:24:51;;;;;;;11.55;9.70;;;;;;;19.72;100.00;101409.53;2633939;36;20022;-75
2021/09/24 11:27:44;;;;;;;11.75;9.95;;;;;;;19.76;100.00;101408.97;2617246;36;20043;-75
2021/09/24 11:33:49;;;;;;;13.63;9.98;;;;;;;20.39;100.00;101406.03;2615953;36;20034;-75
2021/09/24 11:56:12;;;;;;;11.95;8.43;;;;;;;20.08;100.00;101382.44;2614198;31;20023;-75
2021/09/24 12:05:31;;;;;;;12.27;9.15;;;;;;;20.17;100.00;101385.94;2614543;47;20030;-76
2021/09/24 12:10:47;;;;;;;10.82;8.70;;;;;;;20.21;100.00;101386.38;2632756;36;20030;-75
2021/09/24 12:36:07;;;;;;;9.40;7.10;;;;;;;19.96;100.00;101386.63;2638231;36;20440;-76
2021/09/24 12:39:22;;;;;;;14.60;8.88;;;;;;;19.77;100.00;101372.44;2655654;36;20166;-74
2021/09/24 12:42:18;;;;;;;8.77;7.70;;;;;;;19.93;100.00;101374.22;2636984;36;20152;-74
2021/09/24 12:45:18;;;;;;;12.63;7.57;;;;;;;20.29;100.00;101384.41;2656305;36;20159;-76
2021/09/24 12:48:29;;;;;;;11.70;7.35;;;;;;;20.63;100.00;101373.97;2636481;36;20026;-76
2021/09/24 12:51:32;;;;;;;12.55;7.78;;;;;;;20.52;100.00;101378.00;2656267;36;20057;-74
2021/09/24 12:54:38;;;;;;;8.40;6.22;;;;;;;20.85;100.00;101366.69;2639055;36;20428;-77
2021/09/24 12:59:41;;;;;;;9.50;4.95;;;;;;;20.98;100.00;101374.22;2618727;54;20061;-74
2021/09/24 13:02:09;;;;;;;13.43;5.50;;;;;;;21.04;100.00;101375.31;2620311;36;20030;-74
2021/09/24 13:04:38;;;;;;;7.15;4.53;;;;;;;21.02;100.00;101375.50;2620624;36;20051;-74
2021/09/24 13:07:09;;;;;;;9.40;4.95;;;;;;;21.03;100.00;101379.94;2621220;36;20062;-74
2021/09/24 13:09:38;;;;;;;6.15;3.80;;;;;;;20.85;100.00;101372.16;2620592;36;20030;-76
2021/09/24 13:12:08;;;;;;;7.68;3.95;;;;;;;20.79;100.00;101378.41;2620562;36;20081;-74
2021/09/24 13:14:37;;;;;;;4.75;3.53;;;;;;;20.92;100.00;101381.31;2620377;36;20085;-74
2021/09/24 13:17:06;;;;;;;6.07;3.60;;;;;;;20.69;100.00;101378.69;2620878;36;20046;-76
2021/09/24 13:19:35;;;;;;;4.70;3.13;;;;;;;20.71;100.00;101373.03;2621279;36;20026;-78
2021/09/24 13:22:20;;;;;;;;;;;;;;;20.69;100.00;101388.78;2623416;36;20042;-74
2021/09/24 13:24:51;;;;;;;3.90;2.50;;;;;;;20.53;100.00;101390.66;2621225;31;19946;-74
2021/09/24 13:27:20;;;;;;;5.88;3.17;;;;;;;20.65;100.00;101377.34;2620676;36;20026;-74
2021/09/24 13:29:48;;;;;;;5.88;3.10;;;;;;;20.74;100.00;101383.59;2620249;36;20074;-75
2021/09/24 13:37:43;;;;;;;4.35;2.80;;;;;;;20.72;100.00;101382.94;2616536;36;20439;-76
2021/09/24 13:43:40;;;;;;;4.20;2.40;;;;;;;20.59;100.00;101362.53;2616462;31;20144;-74
2021/09/24 13:46:08;;;;;;;6.10;2.80;;;;;;;20.80;100.00;101374.59;2616574;36;20579;-76
2021/09/24 13:48:37;;;;;;;6.15;2.53;;;;;;;21.03;100.00;101365.44;2616924;36;20034;-75
2021/09/24 13:54:16;;;;;;;5.00;2.42;;;;;;;20.87;100.00;101359.13;2617204;36;20015;-75
2021/09/24 13:56:44;;;;;;;4.15;2.47;;;;;;;20.54;100.00;101356.81;2616864;36;20030;-74
2021/09/24 14:01:57;;;;;;;7.63;2.60;;;;;;;20.86;100.00;101346.47;2616870;36;20045;-75
2021/09/24 14:07:08;;;;;;;5.38;2.20;;;;;;;21.19;100.00;101340.53;2615976;36;20030;-77
2021/09/24 14:12:17;;;;;;;4.18;1.90;;;;;;;21.62;100.00;101323.28;2615192;36;20053;-74
2021/09/24 14:14:48;;;;;;;5.50;1.90;;;;;;;21.23;100.00;101328.16;2616995;36;20035;-75
2021/09/24 14:17:16;;;;;;;4.00;2.08;;;;;;;21.27;100.00;101325.88;2616614;36;20026;-77
2021/09/24 14:19:45;;;;;;;4.15;2.00;;;;;;;21.00;100.00;101328.34;2617387;36;20030;-74
2021/09/24 14:28:37;;;;;;;4.65;2.00;;;;;;;21.61;100.00;101327.91;2615140;36;20554;-74
2021/09/24 14:31:32;;;;;;;4.50;1.60;;;;;;;21.75;100.00;101328.03;2614774;36;20090;-76
2021/09/24 14:37:07;;;;;;;1.95;1.30;;;;;;;21.42;100.00;101334.00;2614714;47;20029;-77
2021/09/24 14:43:11;;;;;;;3.28;1.58;;;;;;;20.45;100.00;101319.63;2614714;36;20030;-75
2021/09/24 14:48:50;;;;;;;3.55;1.60;;;;;;;20.87;100.00;101331.75;2632871;31;20169;-74
2021/09/24 14:51:18;;;;;;;6.20;1.90;;;;;;;21.18;100.00;101330.63;2614493;36;20065;-75
2021/09/24 14:53:46;;;;;;;5.55;1.98;;;;;;;21.05;100.00;101325.84;2616575;36;20030;-74
2021/09/24 14:56:16;;;;;;;7.00;1.92;;;;;;;20.95;100.00;101328.94;2616276;36;20396;-74
2021/09/24 14:58:44;;;;;;;4.82;1.70;;;;;;;21.06;100.00;101323.97;2617047;36;20030;-76
2021/09/24 15:01:39;;;;;;;4.55;1.77;;;;;;;21.20;100.00;101323.09;2616111;36;20045;-75
2021/09/24 15:04:17;;;;;;;3.95;1.50;;;;;;;21.31;100.00;101325.28;2614903;36;20089;-74
2021/09/24 15:06:46;;;;;;;3.70;1.63;;;;;;;21.20;100.00;101331.31;2616489;36;20041;-76
2021/09/24 15:09:18;;;;;;;4.88;2.05;;;;;;;21.18;100.00;101327.88;2616043;36;20066;-74
2021/09/24 15:11:47;;;;;;;5.45;1.70;;;;;;;21.18;100.00;101328.72;2616372;36;20030;-75
2021/09/24 15:16:52;;;;;;;5.50;2.28;;;;;;;20.92;100.00;101332.06;2616057;36;20053;-74
2021/09/24 15:19:23;;;;;;;3.67;2.58;;;;;;;20.87;100.00;101337.25;2616773;36;20023;-75
2021/09/24 15:21:51;;;;;;;5.25;2.78;;;;;;;20.89;100.00;101329.69;2616452;36;20042;-74
2021/09/24 15:24:20;;;;;;;4.57;2.53;;;;;;;20.63;100.00;101332.94;2616311;36;20035;-74
2021/09/24 15:26:48;;;;;;;3.22;2.47;;;;;;;20.55;100.00;101336.59;2616672;36;20030;-75
2021/09/24 15:29:16;;;;;;;5.32;2.65;;;;;;;20.36;100.00;101335.31;2617268;31;20061;-77
2021/09/24 15:31:51;;;;;;;7.85;2.65;;;;;;;20.27;100.00;101326.38;2617060;36;20592;-74
2021/09/24 15:34:20;;;;;;;5.55;2.78;;;;;;;20.22;100.00;101323.34;2616592;36;20458;-77
2021/09/24 15:36:57;;;;;;;6.38;2.60;;;;;;;20.10;100.00;101330.31;2616937;36;20030;-74
2021/09/24 15:42:21;;;;;;;3.42;2.53;;;;;;;19.90;100.00;101330.84;2616014;36;20034;-75
2021/09/24 15:58:28;;;;;;;5.55;2.55;;;;;;;19.31;100.00;101327.94;2612642;36;20048;-74
2021/09/24 16:01:30;;;;;;;6.22;2.67;;;;;;;19.29;100.00;101327.25;2615449;36;20073;-75
2021/09/24 16:04:16;;;;;;;4.10;2.38;;;;;;;19.29;100.00;101330.00;2615781;54;20076;-73
2021/09/24 16:18:06;;;;;;;5.75;2.80;;;;;;;18.96;100.00;101330.22;2614479;36;20031;-75
2021/09/24 16:20:35;;;;;;;;;;;;;;;18.86;100.00;101339.50;2615574;36;20423;-75
2021/09/24 16:23:04;;;;;;;8.40;2.92;;;;;;;18.84;100.00;101348.84;2616169;36;19946;-75
2021/09/24 16:25:32;;;;;;;7.07;2.70;;;;;;;18.81;100.00;101350.03;2615843;36;20631;-74
2021/09/24 16:28:01;;;;;;;10.30;2.95;;;;;;;18.83;100.00;101345.28;2615965;36;20053;-75
2021/09/24 16:30:33;;;;;;;;;;;;;;;18.77;100.00;101347.84;2616742;36;20037;-74
2021/09/24 16:33:01;;;;;;;5.55;3.00;;;;;;;18.67;100.00;101345.38;2617039;36;20347;-75
2021/09/24 16:35:29;;;;;;;4.93;2.60;;;;;;;18.64;100.00;101338.38;2616691;31;20049;-74
2021/09/24 16:37:58;;;;;;;3.58;2.40;;;;;;;18.62;100.00;101342.31;2616548;36;20559;-74
2021/09/24 16:40:26;;;;;;;5.32;2.83;;;;;;;18.60;100.00;101344.38;2615430;31;20516;-74
2021/09/24 16:42:54;;;;;;;7.20;2.67;;;;;;;18.54;100.00;101329.56;2614925;36;20046;-73
2021/09/24 16:48:07;;;;;;;4.93;2.30;;;;;;;18.58;100.00;101330.91;2615759;36;20031;-74
2021/09/24 16:50:35;;;;;;;6.57;2.50;;;;;;;18.52;100.00;101337.94;2616529;54;20031;-75
2021/09/24 16:53:04;;;;;;;7.93;2.55;;;;;;;18.47;100.00;101328.56;2616034;36;20081;-74
2021/09/24 16:55:32;;;;;;;7.55;2.65;;;;;;;18.47;100.00;101332.13;2616602;36;20022;-73
2021/09/24 16:58:04;;;;;;;6.68;2.25;;;;;;;18.46;100.00;101338.63;2615762;36;20030;-75
2021/09/24 17:00:37;;;;;;;10.50;2.55;;;;;;;18.46;100.00;101335.91;2616579;36;20519;-74
2021/09/24 17:03:09;;;;;;;8.15;2.30;;;;;;;18.39;100.00;101343.09;2616524;36;20038;-74
2021/09/24 17:05:39;;;;;;;2.70;1.90;;;;;;;18.37;100.00;101337.81;2616455;36;20039;-74
2021/09/24 17:08:07;;;;;;;;;;;;;;;18.32;100.00;101333.91;2616991;36;20613;-76
2021/09/24 17:10:36;;;;;;;7.82;4.97;;;;;;;18.33;100.00;101346.50;2615164;36;20327;-74
2021/09/24 17:46:12;;;;;;;6.72;2.10;;;;;;;18.04;100.00;101356.13;2619236;36;20037;-75
2021/09/24 17:57:24;;;;;;;9.00;2.70;;;;;;;17.88;100.00;101373.31;2615206;36;20015;-75
2021/09/24 17:59:52;;;;;;;5.88;2.33;;;;;;;17.89;100.00;101368.69;2614744;31;20106;-76
2021/09/24 18:05:01;;;;;;;6.80;2.00;;;;;;;17.84;100.00;101369.22;2616824;36;20053;-75
2021/09/24 18:08:14;;;;;;;8.38;2.22;;;;;;;17.82;100.00;101363.94;2616124;36;20022;-76
2021/09/24 18:11:14;;;;;;;5.10;2.40;;;;;;;17.77;100.00;101366.34;2619526;36;20049;-74
2021/09/24 18:16:28;;;;;;;7.00;2.40;;;;;;;17.72;100.00;101363.25;2615422;36;20044;-74
2021/09/24 18:28:52;;;;;;;5.55;2.50;;;;;;;17.65;100.00;101395.78;2614909;47;20026;-75
2021/09/24 18:31:49;;;;;;;5.97;2.95;;;;;;;17.64;100.00;101387.78;2616381;36;20065;-76
2021/09/24 18:34:17;;;;;;;8.75;2.78;;;;;;;17.62;100.00;101387.09;2616498;36;20716;-74
2021/09/24 18:36:46;;;;;;;5.07;2.57;;;;;;;17.64;100.00;101394.06;2616680;36;20547;-75
2021/09/24 18:39:14;;;;;;;5.03;2.65;;;;;;;17.58;100.00;101394.75;2617120;36;20283;-74
2021/09/24 18:41:43;;;;;;;7.50;3.30;;;;;;;17.61;100.00;101390.84;2617220;36;20113;-75
2021/09/24 18:44:14;;;;;;;;;;;;;;;17.66;100.00;101397.47;2616724;36;20026;-76
2021/09/24 18:46:42;;;;;;;6.85;2.83;;;;;;;17.63;100.00;101396.97;2616196;36;19989;-74
2021/09/24 18:49:10;;;;;;;7.53;2.97;;;;;;;17.57;100.00;101408.53;2616844;36;20069;-76
2021/09/24 18:51:39;;;;;;;5.53;2.80;;;;;;;17.63;100.00;101411.41;2616959;36;20035;-75
2021/09/24 18:54:07;;;;;;;6.32;2.50;;;;;;;17.59;100.00;101411.94;2616860;36;20334;-76
2021/09/24 18:56:35;;;;;;;4.38;2.80;;;;;;;17.56;100.00;101414.97;2616691;36;20023;-75
2021/09/24 18:59:04;;;;;;;8.53;2.90;;;;;;;17.52;100.00;101415.31;2616244;36;20030;-76
2021/09/24 19:01:37;;;;;;;7.50;2.70;;;;;;;17.55;100.00;101414.16;2615656;36;20295;-75
2021/09/24 19:04:05;;;;;;;6.43;2.72;;;;;;;17.52;100.00;101412.59;2616510;36;20031;-74
2021/09/24 19:06:34;;;;;;;7.20;2.72;;;;;;;17.53;100.00;101413.44;2616489;36;20081;-74
2021/09/24 19:09:02;;;;;;;7.20;2.93;;;;;;;17.50;100.00;101408.34;2616775;36;20023;-75
2021/09/24 19:11:30;;;;;;;6.83;2.50;;;;;;;17.47;100.00;101409.53;2617322;36;20442;-74
2021/09/24 19:14:01;;;;;;;5.00;2.00;;;;;;;17.45;100.00;101413.44;2616913;36;20786;-74
2021/09/24 19:16:30;;;;;;;4.07;1.90;;;;;;;17.47;100.00;101414.97;2617262;31;20434;-75
2021/09/24 19:22:26;;;;;;;4.80;2.10;;;;;;;17.40;100.00;101423.97;2615966;36;20158;-75
2021/09/24 19:24:54;;;;;;;7.35;2.58;;;;;;;17.39;100.00;101417.69;2616931;36;20034;-75
2021/09/24 19:27:23;;;;;;;4.40;2.33;;;;;;;17.40;100.00;101419.41;2616869;36;20053;-75
2021/09/24 19:30:00;;;;;;;5.07;2.27;;;;;;;17.47;100.00;101420.41;2616756;36;20601;-75
2021/09/24 19:32:29;;;;;;;3.63;1.92;;;;;;;17.42;100.00;101428.25;2616001;36;20360;-74
2021/09/24 19:34:57;;;;;;;5.32;2.13;;;;;;;17.36;100.00;101420.75;2616187;31;20023;-75
2021/09/24 19:37:28;;;;;;;6.72;2.50;;;;;;;17.33;100.00;101434.69;2616615;36;20038;-74
2021/09/24 19:39:56;;;;;;;12.68;2.40;;;;;;;17.30;100.00;101443.19;2616885;36;20034;-76
2021/09/24 19:42:25;;;;;;;6.78;2.20;;;;;;;17.26;100.00;101439.94;2616639;36;20069;-75
2021/09/24 19:47:34;;;;;;;7.00;1.85;;;;;;;17.24;100.00;101436.53;2615724;36;20022;-78
2021/09/24 19:50:06;;;;;;;6.93;2.23;;;;;;;17.26;100.00;101434.50;2617489;36;20436;-74
2021/09/24 19:52:37;;;;;;;5.28;2.00;;;;;;;17.16;100.00;101429.19;2615999;36;20329;-75
2021/09/24 19:55:07;;;;;;;5.50;2.10;;;;;;;17.20;100.00;101428.88;2615594;36;20073;-75
2021/09/24 19:57:35;;;;;;;4.32;1.75;;;;;;;17.20;100.00;101434.31;2616890;36;20065;-77
2021/09/24 20:00:07;;;;;;;3.00;1.60;;;;;;;17.15;100.00;101434.78;2616300;36;20439;-74
2021/09/24 20:02:35;;;;;;;6.05;1.95;;;;;;;17.14;100.00;101436.66;2615013;36;20290;-75
2021/09/24 20:05:03;;;;;;;5.70;1.77;;;;;;;17.06;100.00;101436.63;2615007;36;20038;-75
2021/09/24 20:07:39;;;;;;;6.97;1.90;;;;;;;17.06;100.00;101439.34;2615844;36;20049;-75
2021/09/24 20:10:11;;;;;;;4.35;1.65;;;;;;;17.10;100.00;101437.16;2616464;36;20522;-74
2021/09/24 20:12:41;;;;;;;3.38;1.48;;;;;;;17.07;100.00;101429.34;2616005;36;20027;-75
2021/09/24 20:15:12;;;;;;;8.80;2.30;;;;;;;17.10;100.00;101429.00;2616554;36;20030;-75
2021/09/24 20:17:47;;;;;;;5.93;1.70;;;;;;;17.05;100.00;101424.06;2615646;36;20042;-74
2021/09/24 20:20:30;;;;;;;4.35;1.77;;;;;;;16.98;100.00;101420.31;2616843;36;20451;-75
2021/09/24 20:23:01;;;;;;;2.97;1.70;;;;;;;17.03;100.00;101422.53;2615145;36;20058;-75
2021/09/24 20:25:32;;;;;;;3.90;1.92;;;;;;;17.04;100.00;101414.19;2615570;36;20520;-74
2021/09/24 20:28:00;;;;;;;6.07;1.60;;;;;;;17.11;100.00;101426.13;2615180;36;20027;-75
2021/09/24 20:30:37;;;;;;;7.63;2.20;;;;;;;17.12;100.00;101421.53;2615713;31;20054;-77
2021/09/24 20:33:07;;;;;;;6.50;1.83;;;;;;;17.02;100.00;101410.81;2615629;36;20551;-77
2021/09/24 20:35:36;;;;;;;7.82;2.00;;;;;;;17.05;100.00;101418.63;2615950;36;20458;-74
2021/09/24 20:38:05;;;;;;;6.95;1.75;;;;;;;16.99;100.00;101424.72;2615557;31;20154;-75
2021/09/24 20:41:08;;;;;;;5.03;2.10;;;;;;;17.02;100.00;101427.13;2615992;36;20034;-77
2021/09/24 20:43:39;;;;;;;6.60;1.80;;;;;;;16.98;100.00;101420.31;2616302;36;20042;-78
2021/09/24 20:46:08;;;;;;;4.80;1.83;;;;;;;16.94;100.00;101424.34;2616185;36;20413;-74
2021/09/24 20:48:37;;;;;;;5.47;1.70;;;;;;;17.01;100.00;101424.56;2616967;36;20054;-75
2021/09/24 20:59:09;;;;;;;6.85;2.03;;;;;;;16.95;100.00;101420.63;2614878;54;20049;-74
2021/09/24 21:01:45;;;;;;;4.95;1.70;;;;;;;16.99;100.00;101422.00;2614225;36;20038;-75
2021/09/24 21:04:16;;;;;;;5.63;1.83;;;;;;;17.05;100.00;101413.19;2618119;31;20503;-75
2021/09/24 21:06:48;;;;;;;6.15;2.05;;;;;;;17.04;100.00;101416.06;2616414;31;20033;-75
2021/09/24 21:09:17;;;;;;;6.13;1.60;;;;;;;17.03;100.00;101417.94;2616438;36;20598;-74
2021/09/24 21:11:45;;;;;;;;;;;;;;;17.01;100.00;101422.69;2617161;36;20030;-76
2021/09/24 21:14:23;;;;;;;6.45;1.83;;;;;;;16.96;100.00;101416.88;2617148;36;19978;-79
2021/09/24 21:17:00;;;;;;;8.80;2.33;;;;;;;16.96;100.00;101416.88;2616963;31;20495;-75
2021/09/24 21:19:29;;;;;;;5.82;1.90;;;;;;;16.95;100.00;101402.44;2617210;36;20314;-76
2021/09/24 21:21:57;;;;;;;6.80;1.70;;;;;;;16.94;100.00;101410.75;2616155;36;20063;-76
2021/09/24 21:27:36;;;;;;;4.65;1.60;;;;;;;16.93;100.00;101400.91;2616443;36;20543;-74
2021/09/24 21:30:37;;;;;;;5.90;1.88;;;;;;;16.91;100.00;101402.94;2617368;36;20023;-75
2021/09/24 21:36:03;;;;;;;6.75;2.50;;;;;;;16.84;100.00;101408.13;2616891;36;20038;-75
2021/09/24 21:38:46;;;;;;;5.70;2.42;;;;;;;16.85;100.00;101409.84;2617258;36;20038;-75
2021/09/24 21:41:15;;;;;;;8.15;2.40;;;;;;;16.81;100.00;101403.91;2617220;36;20055;-74
2021/09/24 21:43:43;;;;;;;5.38;2.53;;;;;;;16.80;100.00;101407.63;2617335;36;20430;-75
2021/09/24 21:46:16;;;;;;;6.27;2.47;;;;;;;16.77;100.00;101407.97;2616533;36;20061;-74
2021/09/24 21:49:07;;;;;;;7.18;2.40;;;;;;;16.77;100.00;101407.97;2616661;36;20287;-75
2021/09/24 21:51:35;;;;;;;9.80;2.63;;;;;;;16.78;100.00;101417.81;2615122;36;20062;-75
2021/09/24 21:54:11;;;;;;;6.18;2.22;;;;;;;16.78;100.00;101420.53;2614414;36;20030;-74
2021/09/24 21:59:10;;;;;;;4.53;2.45;;;;;;;16.78;100.00;101431.41;2615992;36;20027;-75
2021/09/24 22:01:47;;;;;;;6.65;2.63;;;;;;;16.77;100.00;101424.25;2615940;36;20081;-75
2021/09/24 22:04:18;;;;;;;10.90;2.95;;;;;;;16.76;100.00;101422.56;2617179;36;20424;-74
2021/09/24 22:06:46;;;;;;;6.90;2.60;;;;;;;16.80;100.00;101423.94;2617201;36;20026;-75
2021/09/24 22:09:15;;;;;;;8.87;2.60;;;;;;;16.76;100.00;101417.13;2618213;31;20461;-75
2021/09/24 22:11:44;;;;;;;10.23;2.80;;;;;;;16.77;100.00;101413.41;2614123;36;20030;-77
2021/09/24 22:14:12;;;;;;;4.55;2.17;;;;;;;16.81;100.00;101409.34;2615523;36;20423;-74
2021/09/24 22:16:40;;;;;;;5.23;2.67;;;;;;;16.79;100.00;101408.63;2613273;36;20038;-76
2021/09/24 22:19:08;;;;;;;4.97;2.70;;;;;;;16.77;100.00;101405.25;2616729;36;20688;-77
2021/09/24 22:21:39;;;;;;;9.23;3.50;;;;;;;16.85;100.00;101409.84;2615467;36;20045;-75
2021/09/24 22:24:08;;;;;;;8.02;3.47;;;;;;;16.81;100.00;101401.19;2616227;36;20034;-74
2021/09/24 22:26:36;;;;;;;5.15;2.17;;;;;;;16.76;100.00;101402.69;2615869;36;20061;-76
2021/09/24 22:29:05;;;;;;;4.47;2.57;;;;;;;16.71;100.00;101396.88;2615474;36;20022;-75
2021/09/24 22:31:34;;;;;;;7.75;2.80;;;;;;;16.72;100.00;101402.13;2615272;36;20051;-75
2021/09/24 22:34:02;;;;;;;9.93;2.58;;;;;;;16.69;100.00;101399.75;2616734;36;20122;-75
2021/09/24 22:36:31;;;;;;;6.85;2.80;;;;;;;16.71;100.00;101396.88;2616926;36;20073;-74
2021/09/24 22:39:01;;;;;;;9.97;2.80;;;;;;;16.68;100.00;101392.63;2616604;36;20054;-75
2021/09/24 22:41:30;;;;;;;8.85;2.55;;;;;;;16.71;100.00;101394.16;2616553;36;20305;-76
2021/09/24 22:43:58;;;;;;;7.95;2.65;;;;;;;16.70;100.00;101390.59;2616893;36;20034;-74
2021/09/24 22:46:26;;;;;;;6.93;2.50;;;;;;;16.68;100.00;101387.19;2616310;36;20078;-75
2021/09/24 22:48:55;;;;;;;7.67;2.73;;;;;;;16.68;100.00;101381.75;2616057;31;20058;-75
2021/09/24 22:51:23;;;;;;;11.02;2.60;;;;;;;16.72;100.00;101390.44;2616438;36;20031;-76
2021/09/24 22:53:51;;;;;;;8.17;2.90;;;;;;;16.74;100.00;101399.25;2615760;36;20038;-75
2021/09/24 22:56:22;;;;;;;10.68;2.90;;;;;;;16.70;100.00;101393.31;2615204;36;20030;-75
2021/09/24 22:58:50;;;;;;;7.75;2.80;;;;;;;16.79;100.00;101399.63;2615697;36;20559;-75
2021/09/24 23:01:19;;;;;;;6.97;2.73;;;;;;;16.78;100.00;101400.63;2614291;36;20549;-77
2021/09/24 23:03:47;;;;;;;10.50;2.78;;;;;;;16.79;100.00;101400.47;2615155;36;20954;-76
2021/09/24 23:06:15;;;;;;;6.47;2.70;;;;;;;16.79;100.00;101403.19;2615426;36;20041;-76
2021/09/24 23:08:43;;;;;;;11.77;2.70;;;;;;;16.76;100.00;101408.97;2615756;36;20022;-77
2021/09/24 23:11:12;;;;;;;7.78;2.70;;;;;;;16.75;100.00;101399.09;2616171;36;20093;-75
2021/09/24 23:13:43;;;;;;;10.80;2.92;;;;;;;16.76;100.00;101406.25;2616130;36;20030;-75
2021/09/24 23:16:11;;;;;;;7.57;3.03;;;;;;;16.76;100.00;101410.84;2616141;36;20096;-75
2021/09/24 23:18:39;;;;;;;6.03;2.67;;;;;;;16.76;100.00;101408.13;2616614;36;20050;-75
2021/09/24 23:21:08;;;;;;;7.63;2.73;;;;;;;16.77;100.00;101407.97;2616758;36;20038;-77
2021/09/24 23:23:36;;;;;;;6.17;2.73;;;;;;;16.75;100.00;101399.09;2616649;36;20027;-75
2021/09/24 23:26:04;;;;;;;10.83;3.07;;;;;;;16.71;100.00;101397.75;2615901;36;20054;-75
2021/09/24 23:28:33;;;;;;;8.60;2.75;;;;;;;16.69;100.00;101407.91;2616738;36;20117;-75
2021/09/24 23:31:04;;;;;;;6.40;2.65;;;;;;;16.69;100.00;101402.47;2615974;36;20030;-76
2021/09/24 23:33:33;;;;;;;11.23;2.95;;;;;;;16.73;100.00;101403.00;2616127;36;20031;-76
2021/09/24 23:36:01;;;;;;;12.13;3.50;;;;;;;16.71;100.00;101396.88;2616419;36;20850;-76
2021/09/24 23:38:29;;;;;;;11.13;3.30;;;;;;;16.68;100.00;101402.63;2616555;36;20023;-77
2021/09/24 23:40:57;;;;;;;10.40;3.05;;;;;;;16.73;100.00;101394.84;2616059;36;20102;-74
2021/09/24 23:43:26;;;;;;;10.20;2.90;;;;;;;16.69;100.00;101388.88;2616426;36;20078;-76
2021/09/24 23:45:54;;;;;;;9.90;2.50;;;;;;;16.68;100.00;101395.34;2616108;36;20034;-74
2021/09/24 23:48:25;;;;;;;7.50;3.87;;;;;;;16.67;100.00;101395.53;2616320;36;20295;-75
2021/09/24 23:50:53;;;;;;;6.18;2.70;;;;;;;16.71;100.00;101403.19;2616575;36;20037;-75
2021/09/24 23:53:22;;;;;;;6.50;3.43;;;;;;;16.74;100.00;101408.28;2616822;36;20073;-75
2021/09/24 23:55:50;;;;;;;9.27;2.80;;;;;;;16.75;100.00;101401.81;2616441;36;20022;-76
2021/09/24 23:58:18;;;;;;;12.40;3.25;;;;;;;16.79;100.00;101405.91;2616195;36;20089;-77
